sensor_id;sensor_type;location;lat;lon;timestamp;P1;durP1;ratioP1;P2;durP2;ratioP2
38805;SDS011;25635;51.146;17.162;2022-12-07T00:01:19;11.93;;;7.60;;
38805;SDS011;25635;51.146;17.162;2022-12-07T00:03:52;12.10;;;7.23;;
38805;SDS011;25635;51.146;17.162;2022-12-07T00:06:22;12.37;;;7.70;;
38805;SDS011;25635;51.146;17.162;2022-12-07T00:08:48;10.93;;;7.10;;
38805;SDS011;25635;51.146;17.162;2022-12-07T00:11:15;11.23;;;6.70;;
38805;SDS011;25635;51.146;17.162;2022-12-07T00:13:50;10.50;;;6.40;;
38805;SDS011;25635;51.146;17.162;2022-12-07T00:16:23;10.63;;;7.07;;
38805;SDS011;25635;51.146;17.162;2022-12-07T00:18:52;11.57;;;7.10;;
38805;SDS011;25635;51.146;17.162;2022-12-07T00:21:23;10.33;;;7.10;;
38805;SDS011;25635;51.146;17.162;2022-12-07T00:23:53;8.97;;;5.83;;
38805;SDS011;25635;51.146;17.162;2022-12-07T00:26:21;8.27;;;5.43;;
38805;SDS011;25635;51.146;17.162;2022-12-07T00:28:59;10.13;;;6.00;;
38805;SDS011;25635;51.146;17.162;2022-12-07T00:31:29;8.80;;;5.93;;
38805;SDS011;25635;51.146;17.162;2022-12-07T00:34:00;9.43;;;5.17;;
38805;SDS011;25635;51.146;17.162;2022-12-07T00:36:27;8.00;;;5.73;;
38805;SDS011;25635;51.146;17.162;2022-12-07T00:38:54;7.87;;;4.70;;
38805;SDS011;25635;51.146;17.162;2022-12-07T00:41:22;7.83;;;5.20;;
38805;SDS011;25635;51.146;17.162;2022-12-07T00:43:50;7.53;;;4.87;;
38805;SDS011;25635;51.146;17.162;2022-12-07T00:46:17;7.60;;;4.93;;
38805;SDS011;25635;51.146;17.162;2022-12-07T00:48:45;8.60;;;5.50;;
38805;SDS011;25635;51.146;17.162;2022-12-07T00:51:13;8.93;;;5.20;;
38805;SDS011;25635;51.146;17.162;2022-12-07T00:53:42;8.50;;;4.97;;
38805;SDS011;25635;51.146;17.162;2022-12-07T00:56:09;7.43;;;4.90;;
38805;SDS011;25635;51.146;17.162;2022-12-07T00:58:42;7.20;;;4.53;;
38805;SDS011;25635;51.146;17.162;2022-12-07T01:01:09;7.13;;;4.23;;
38805;SDS011;25635;51.146;17.162;2022-12-07T01:03:37;6.83;;;4.10;;
38805;SDS011;25635;51.146;17.162;2022-12-07T01:06:04;7.33;;;4.67;;
38805;SDS011;25635;51.146;17.162;2022-12-07T01:08:31;7.07;;;4.40;;
38805;SDS011;25635;51.146;17.162;2022-12-07T01:10:59;6.90;;;3.70;;
38805;SDS011;25635;51.146;17.162;2022-12-07T01:13:34;7.30;;;4.47;;
38805;SDS011;25635;51.146;17.162;2022-12-07T01:16:03;7.60;;;4.50;;
38805;SDS011;25635;51.146;17.162;2022-12-07T01:18:31;6.90;;;4.07;;
38805;SDS011;25635;51.146;17.162;2022-12-07T01:21:04;7.50;;;4.27;;
38805;SDS011;25635;51.146;17.162;2022-12-07T01:23:34;6.97;;;4.20;;
38805;SDS011;25635;51.146;17.162;2022-12-07T01:26:03;7.27;;;3.80;;
38805;SDS011;25635;51.146;17.162;2022-12-07T01:28:32;6.83;;;3.30;;
38805;SDS011;25635;51.146;17.162;2022-12-07T01:31:00;7.00;;;4.17;;
38805;SDS011;25635;51.146;17.162;2022-12-07T01:33:33;8.20;;;3.73;;
38805;SDS011;25635;51.146;17.162;2022-12-07T01:36:14;6.27;;;3.90;;
38805;SDS011;25635;51.146;17.162;2022-12-07T01:38:32;6.33;;;3.53;;
38805;SDS011;25635;51.146;17.162;2022-12-07T01:41:00;6.00;;;3.47;;
38805;SDS011;25635;51.146;17.162;2022-12-07T01:43:28;6.43;;;3.57;;
38805;SDS011;25635;51.146;17.162;2022-12-07T01:45:56;5.87;;;3.03;;
38805;SDS011;25635;51.146;17.162;2022-12-07T01:48:28;5.77;;;3.40;;
38805;SDS011;25635;51.146;17.162;2022-12-07T01:50:55;6.53;;;3.47;;
38805;SDS011;25635;51.146;17.162;2022-12-07T01:53:26;5.63;;;3.03;;
38805;SDS011;25635;51.146;17.162;2022-12-07T01:55:55;6.00;;;2.93;;
38805;SDS011;25635;51.146;17.162;2022-12-07T01:58:23;5.23;;;3.17;;
38805;SDS011;25635;51.146;17.162;2022-12-07T02:00:50;6.77;;;2.90;;
38805;SDS011;25635;51.146;17.162;2022-12-07T02:03:34;5.00;;;3.10;;
38805;SDS011;25635;51.146;17.162;2022-12-07T02:06:06;5.40;;;3.20;;
38805;SDS011;25635;51.146;17.162;2022-12-07T02:08:35;6.00;;;3.10;;
38805;SDS011;25635;51.146;17.162;2022-12-07T02:11:02;5.00;;;3.10;;
38805;SDS011;25635;51.146;17.162;2022-12-07T02:13:32;5.23;;;3.00;;
38805;SDS011;25635;51.146;17.162;2022-12-07T02:16:17;4.50;;;2.63;;
38805;SDS011;25635;51.146;17.162;2022-12-07T02:18:55;5.50;;;2.60;;
38805;SDS011;25635;51.146;17.162;2022-12-07T02:21:46;6.27;;;2.80;;
38805;SDS011;25635;51.146;17.162;2022-12-07T02:24:45;4.97;;;2.33;;
38805;SDS011;25635;51.146;17.162;2022-12-07T02:27:23;5.93;;;2.57;;
38805;SDS011;25635;51.146;17.162;2022-12-07T02:30:12;5.17;;;2.97;;
38805;SDS011;25635;51.146;17.162;2022-12-07T02:32:48;4.80;;;2.80;;
38805;SDS011;25635;51.146;17.162;2022-12-07T02:35:35;4.50;;;2.20;;
38805;SDS011;25635;51.146;17.162;2022-12-07T02:38:12;4.80;;;2.50;;
38805;SDS011;25635;51.146;17.162;2022-12-07T02:43:47;4.13;;;2.10;;
38805;SDS011;25635;51.146;17.162;2022-12-07T02:46:24;4.00;;;1.90;;
38805;SDS011;25635;51.146;17.162;2022-12-07T02:48:54;4.03;;;1.80;;
38805;SDS011;25635;51.146;17.162;2022-12-07T02:51:23;4.00;;;2.00;;
38805;SDS011;25635;51.146;17.162;2022-12-07T02:53:49;4.10;;;1.90;;
38805;SDS011;25635;51.146;17.162;2022-12-07T03:11:04;4.65;;;2.00;;
38805;SDS011;25635;51.146;17.162;2022-12-07T03:16:16;4.30;;;1.60;;
38805;SDS011;25635;51.146;17.162;2022-12-07T03:21:39;4.43;;;1.60;;
38805;SDS011;25635;51.146;17.162;2022-12-07T03:24:17;3.70;;;1.50;;
38805;SDS011;25635;51.146;17.162;2022-12-07T03:26:52;5.00;;;2.00;;
38805;SDS011;25635;51.146;17.162;2022-12-07T03:29:28;4.13;;;1.87;;
38805;SDS011;25635;51.146;17.162;2022-12-07T03:34:50;3.50;;;1.47;;
38805;SDS011;25635;51.146;17.162;2022-12-07T03:37:31;3.50;;;1.50;;
38805;SDS011;25635;51.146;17.162;2022-12-07T03:42:43;3.30;;;1.60;;
38805;SDS011;25635;51.146;17.162;2022-12-07T03:45:10;3.60;;;1.70;;
38805;SDS011;25635;51.146;17.162;2022-12-07T03:47:42;3.70;;;1.70;;
38805;SDS011;25635;51.146;17.162;2022-12-07T03:51:00;3.57;;;1.47;;
38805;SDS011;25635;51.146;17.162;2022-12-07T03:53:18;3.37;;;1.60;;
38805;SDS011;25635;51.146;17.162;2022-12-07T03:55:48;3.17;;;1.57;;
38805;SDS011;25635;51.146;17.162;2022-12-07T03:58:16;3.73;;;1.60;;
38805;SDS011;25635;51.146;17.162;2022-12-07T04:00:46;3.67;;;1.57;;
38805;SDS011;25635;51.146;17.162;2022-12-07T04:03:15;3.10;;;1.50;;
38805;SDS011;25635;51.146;17.162;2022-12-07T04:05:41;3.80;;;1.80;;
38805;SDS011;25635;51.146;17.162;2022-12-07T04:08:08;3.33;;;1.63;;
38805;SDS011;25635;51.146;17.162;2022-12-07T04:10:35;3.83;;;1.90;;
38805;SDS011;25635;51.146;17.162;2022-12-07T04:13:01;3.10;;;1.50;;
38805;SDS011;25635;51.146;17.162;2022-12-07T04:15:27;3.60;;;1.73;;
38805;SDS011;25635;51.146;17.162;2022-12-07T04:17:54;3.90;;;1.80;;
38805;SDS011;25635;51.146;17.162;2022-12-07T04:20:20;4.07;;;1.80;;
38805;SDS011;25635;51.146;17.162;2022-12-07T04:22:46;4.07;;;2.10;;
38805;SDS011;25635;51.146;17.162;2022-12-07T04:25:13;4.37;;;2.10;;
38805;SDS011;25635;51.146;17.162;2022-12-07T04:27:39;4.67;;;2.47;;
38805;SDS011;25635;51.146;17.162;2022-12-07T04:30:06;4.77;;;2.30;;
38805;SDS011;25635;51.146;17.162;2022-12-07T04:32:33;3.50;;;2.00;;
38805;SDS011;25635;51.146;17.162;2022-12-07T04:34:59;4.07;;;2.17;;
38805;SDS011;25635;51.146;17.162;2022-12-07T04:37:25;3.87;;;2.10;;
38805;SDS011;25635;51.146;17.162;2022-12-07T04:39:52;4.77;;;2.30;;
38805;SDS011;25635;51.146;17.162;2022-12-07T04:42:18;3.13;;;1.80;;
38805;SDS011;25635;51.146;17.162;2022-12-07T04:44:44;3.90;;;1.90;;
38805;SDS011;25635;51.146;17.162;2022-12-07T04:47:10;4.33;;;2.40;;
38805;SDS011;25635;51.146;17.162;2022-12-07T04:49:36;6.20;;;3.03;;
38805;SDS011;25635;51.146;17.162;2022-12-07T04:52:02;5.27;;;2.73;;
38805;SDS011;25635;51.146;17.162;2022-12-07T04:54:28;6.20;;;3.10;;
38805;SDS011;25635;51.146;17.162;2022-12-07T04:56:55;5.23;;;2.60;;
38805;SDS011;25635;51.146;17.162;2022-12-07T04:59:21;5.37;;;2.53;;
38805;SDS011;25635;51.146;17.162;2022-12-07T05:01:47;4.60;;;2.30;;
38805;SDS011;25635;51.146;17.162;2022-12-07T05:04:13;6.47;;;3.03;;
38805;SDS011;25635;51.146;17.162;2022-12-07T05:06:42;5.60;;;2.20;;
38805;SDS011;25635;51.146;17.162;2022-12-07T05:09:08;4.80;;;2.40;;
38805;SDS011;25635;51.146;17.162;2022-12-07T05:11:34;6.23;;;2.70;;
38805;SDS011;25635;51.146;17.162;2022-12-07T05:14:05;6.60;;;3.20;;
38805;SDS011;25635;51.146;17.162;2022-12-07T05:16:41;5.10;;;2.60;;
38805;SDS011;25635;51.146;17.162;2022-12-07T05:19:09;4.87;;;2.50;;
38805;SDS011;25635;51.146;17.162;2022-12-07T05:21:35;5.47;;;2.80;;
38805;SDS011;25635;51.146;17.162;2022-12-07T05:24:03;4.20;;;2.40;;
38805;SDS011;25635;51.146;17.162;2022-12-07T05:26:30;5.30;;;2.93;;
38805;SDS011;25635;51.146;17.162;2022-12-07T05:28:57;5.60;;;3.00;;
38805;SDS011;25635;51.146;17.162;2022-12-07T05:31:24;5.70;;;3.00;;
38805;SDS011;25635;51.146;17.162;2022-12-07T05:33:51;6.87;;;3.07;;
38805;SDS011;25635;51.146;17.162;2022-12-07T05:36:18;5.47;;;3.20;;
38805;SDS011;25635;51.146;17.162;2022-12-07T05:38:45;5.33;;;2.77;;
38805;SDS011;25635;51.146;17.162;2022-12-07T05:41:13;5.67;;;3.17;;
38805;SDS011;25635;51.146;17.162;2022-12-07T05:44:00;5.60;;;3.20;;
38805;SDS011;25635;51.146;17.162;2022-12-07T05:46:26;5.27;;;2.83;;
38805;SDS011;25635;51.146;17.162;2022-12-07T05:48:52;6.90;;;3.67;;
38805;SDS011;25635;51.146;17.162;2022-12-07T05:51:19;6.37;;;3.70;;
38805;SDS011;25635;51.146;17.162;2022-12-07T05:53:45;7.37;;;3.50;;
38805;SDS011;25635;51.146;17.162;2022-12-07T05:56:11;6.93;;;4.60;;
38805;SDS011;25635;51.146;17.162;2022-12-07T05:58:38;7.13;;;4.77;;
38805;SDS011;25635;51.146;17.162;2022-12-07T06:01:22;8.47;;;5.17;;
38805;SDS011;25635;51.146;17.162;2022-12-07T06:03:49;9.00;;;5.83;;
38805;SDS011;25635;51.146;17.162;2022-12-07T06:06:15;9.70;;;6.13;;
38805;SDS011;25635;51.146;17.162;2022-12-07T06:08:41;9.37;;;5.93;;
38805;SDS011;25635;51.146;17.162;2022-12-07T06:11:08;11.50;;;7.30;;
38805;SDS011;25635;51.146;17.162;2022-12-07T06:13:52;11.90;;;7.33;;
38805;SDS011;25635;51.146;17.162;2022-12-07T06:16:18;11.90;;;7.17;;
38805;SDS011;25635;51.146;17.162;2022-12-07T06:18:44;12.30;;;7.50;;
38805;SDS011;25635;51.146;17.162;2022-12-07T06:21:10;13.53;;;8.13;;
38805;SDS011;25635;51.146;17.162;2022-12-07T06:23:37;13.27;;;8.00;;
38805;SDS011;25635;51.146;17.162;2022-12-07T06:26:03;12.07;;;7.77;;
38805;SDS011;25635;51.146;17.162;2022-12-07T06:28:29;12.63;;;8.47;;
38805;SDS011;25635;51.146;17.162;2022-12-07T06:30:59;13.60;;;8.33;;
38805;SDS011;25635;51.146;17.162;2022-12-07T06:33:27;13.03;;;8.20;;
38805;SDS011;25635;51.146;17.162;2022-12-07T06:35:54;13.87;;;9.03;;
38805;SDS011;25635;51.146;17.162;2022-12-07T06:38:21;15.87;;;10.23;;
38805;SDS011;25635;51.146;17.162;2022-12-07T06:40:47;15.70;;;9.17;;
38805;SDS011;25635;51.146;17.162;2022-12-07T06:43:14;17.10;;;10.63;;
38805;SDS011;25635;51.146;17.162;2022-12-07T06:45:40;14.73;;;9.63;;
38805;SDS011;25635;51.146;17.162;2022-12-07T06:48:07;13.53;;;9.17;;
38805;SDS011;25635;51.146;17.162;2022-12-07T06:50:33;15.20;;;10.00;;
38805;SDS011;25635;51.146;17.162;2022-12-07T06:52:59;17.00;;;10.33;;
38805;SDS011;25635;51.146;17.162;2022-12-07T06:55:25;15.70;;;10.30;;
38805;SDS011;25635;51.146;17.162;2022-12-07T06:57:51;17.37;;;10.57;;
38805;SDS011;25635;51.146;17.162;2022-12-07T07:00:18;17.20;;;10.60;;
38805;SDS011;25635;51.146;17.162;2022-12-07T07:02:45;17.60;;;10.10;;
38805;SDS011;25635;51.146;17.162;2022-12-07T07:05:11;15.90;;;9.60;;
38805;SDS011;25635;51.146;17.162;2022-12-07T07:07:37;15.50;;;10.03;;
38805;SDS011;25635;51.146;17.162;2022-12-07T07:10:04;15.67;;;10.13;;
38805;SDS011;25635;51.146;17.162;2022-12-07T07:12:31;17.00;;;10.67;;
38805;SDS011;25635;51.146;17.162;2022-12-07T07:14:57;15.53;;;10.10;;
38805;SDS011;25635;51.146;17.162;2022-12-07T07:17:23;18.47;;;11.47;;
38805;SDS011;25635;51.146;17.162;2022-12-07T07:19:49;18.90;;;10.60;;
38805;SDS011;25635;51.146;17.162;2022-12-07T07:22:16;19.67;;;11.17;;
38805;SDS011;25635;51.146;17.162;2022-12-07T07:24:42;15.70;;;10.23;;
38805;SDS011;25635;51.146;17.162;2022-12-07T07:27:08;15.43;;;9.93;;
38805;SDS011;25635;51.146;17.162;2022-12-07T07:29:34;15.77;;;9.87;;
38805;SDS011;25635;51.146;17.162;2022-12-07T07:32:00;15.40;;;9.87;;
38805;SDS011;25635;51.146;17.162;2022-12-07T07:34:26;21.27;;;10.73;;
38805;SDS011;25635;51.146;17.162;2022-12-07T07:36:52;16.40;;;10.33;;
38805;SDS011;25635;51.146;17.162;2022-12-07T07:39:19;15.63;;;10.50;;
38805;SDS011;25635;51.146;17.162;2022-12-07T07:41:45;16.87;;;10.33;;
38805;SDS011;25635;51.146;17.162;2022-12-07T07:44:15;18.53;;;10.60;;
38805;SDS011;25635;51.146;17.162;2022-12-07T07:46:46;17.70;;;11.47;;
38805;SDS011;25635;51.146;17.162;2022-12-07T07:49:12;19.37;;;11.80;;
38805;SDS011;25635;51.146;17.162;2022-12-07T07:51:39;18.67;;;11.47;;
38805;SDS011;25635;51.146;17.162;2022-12-07T07:54:05;17.80;;;10.47;;
38805;SDS011;25635;51.146;17.162;2022-12-07T07:56:31;17.63;;;10.57;;
38805;SDS011;25635;51.146;17.162;2022-12-07T07:58:58;15.63;;;9.73;;
38805;SDS011;25635;51.146;17.162;2022-12-07T08:01:24;17.47;;;10.37;;
38805;SDS011;25635;51.146;17.162;2022-12-07T08:03:50;16.10;;;9.57;;
38805;SDS011;25635;51.146;17.162;2022-12-07T08:06:16;15.57;;;10.03;;
38805;SDS011;25635;51.146;17.162;2022-12-07T08:08:42;16.17;;;10.03;;
38805;SDS011;25635;51.146;17.162;2022-12-07T08:11:08;16.33;;;9.97;;
38805;SDS011;25635;51.146;17.162;2022-12-07T08:13:36;13.40;;;8.70;;
38805;SDS011;25635;51.146;17.162;2022-12-07T08:16:06;15.97;;;10.07;;
38805;SDS011;25635;51.146;17.162;2022-12-07T08:18:39;19.43;;;10.13;;
38805;SDS011;25635;51.146;17.162;2022-12-07T08:21:12;15.07;;;9.50;;
38805;SDS011;25635;51.146;17.162;2022-12-07T08:23:40;14.87;;;8.70;;
38805;SDS011;25635;51.146;17.162;2022-12-07T08:26:08;12.60;;;8.80;;
38805;SDS011;25635;51.146;17.162;2022-12-07T08:28:36;15.93;;;9.53;;
38805;SDS011;25635;51.146;17.162;2022-12-07T08:31:04;15.10;;;10.00;;
38805;SDS011;25635;51.146;17.162;2022-12-07T08:33:34;15.57;;;9.40;;
38805;SDS011;25635;51.146;17.162;2022-12-07T08:36:02;17.77;;;9.37;;
38805;SDS011;25635;51.146;17.162;2022-12-07T08:38:32;16.27;;;9.77;;
38805;SDS011;25635;51.146;17.162;2022-12-07T08:41:00;16.00;;;10.70;;
38805;SDS011;25635;51.146;17.162;2022-12-07T08:43:26;16.37;;;9.87;;
38805;SDS011;25635;51.146;17.162;2022-12-07T08:45:55;14.50;;;8.93;;
38805;SDS011;25635;51.146;17.162;2022-12-07T08:48:30;15.23;;;9.40;;
38805;SDS011;25635;51.146;17.162;2022-12-07T08:50:57;14.10;;;9.20;;
38805;SDS011;25635;51.146;17.162;2022-12-07T08:53:24;15.40;;;9.63;;
38805;SDS011;25635;51.146;17.162;2022-12-07T08:55:50;13.80;;;8.67;;
38805;SDS011;25635;51.146;17.162;2022-12-07T08:58:17;17.97;;;10.57;;
38805;SDS011;25635;51.146;17.162;2022-12-07T09:00:43;14.00;;;8.80;;
38805;SDS011;25635;51.146;17.162;2022-12-07T09:03:09;16.97;;;9.33;;
38805;SDS011;25635;51.146;17.162;2022-12-07T09:05:35;18.37;;;9.90;;
38805;SDS011;25635;51.146;17.162;2022-12-07T09:08:01;17.13;;;10.37;;
38805;SDS011;25635;51.146;17.162;2022-12-07T09:10:28;21.07;;;9.97;;
38805;SDS011;25635;51.146;17.162;2022-12-07T09:12:55;15.20;;;9.77;;
38805;SDS011;25635;51.146;17.162;2022-12-07T09:15:21;16.57;;;9.30;;
38805;SDS011;25635;51.146;17.162;2022-12-07T09:17:47;15.47;;;9.40;;
38805;SDS011;25635;51.146;17.162;2022-12-07T09:20:13;15.37;;;9.70;;
38805;SDS011;25635;51.146;17.162;2022-12-07T09:22:39;15.03;;;9.27;;
38805;SDS011;25635;51.146;17.162;2022-12-07T09:25:05;14.73;;;9.03;;
38805;SDS011;25635;51.146;17.162;2022-12-07T09:27:32;13.97;;;8.73;;
38805;SDS011;25635;51.146;17.162;2022-12-07T09:29:58;16.00;;;9.30;;
38805;SDS011;25635;51.146;17.162;2022-12-07T09:32:24;18.27;;;9.97;;
38805;SDS011;25635;51.146;17.162;2022-12-07T09:34:51;16.67;;;9.23;;
38805;SDS011;25635;51.146;17.162;2022-12-07T09:37:17;17.13;;;9.50;;
38805;SDS011;25635;51.146;17.162;2022-12-07T09:39:43;19.07;;;9.97;;
38805;SDS011;25635;51.146;17.162;2022-12-07T09:42:11;13.30;;;7.83;;
38805;SDS011;25635;51.146;17.162;2022-12-07T09:44:55;14.87;;;8.88;;
38805;SDS011;25635;51.146;17.162;2022-12-07T09:47:23;14.87;;;7.83;;
38805;SDS011;25635;51.146;17.162;2022-12-07T09:49:50;13.20;;;7.70;;
38805;SDS011;25635;51.146;17.162;2022-12-07T09:52:18;13.80;;;8.17;;
38805;SDS011;25635;51.146;17.162;2022-12-07T09:54:48;17.00;;;8.50;;
38805;SDS011;25635;51.146;17.162;2022-12-07T09:57:17;13.80;;;7.67;;
38805;SDS011;25635;51.146;17.162;2022-12-07T09:59:50;14.67;;;7.70;;
38805;SDS011;25635;51.146;17.162;2022-12-07T10:02:21;15.60;;;8.17;;
38805;SDS011;25635;51.146;17.162;2022-12-07T10:05:00;14.80;;;7.67;;
38805;SDS011;25635;51.146;17.162;2022-12-07T10:07:29;14.10;;;7.30;;
38805;SDS011;25635;51.146;17.162;2022-12-07T10:09:55;13.90;;;6.73;;
38805;SDS011;25635;51.146;17.162;2022-12-07T10:12:21;11.63;;;6.33;;
38805;SDS011;25635;51.146;17.162;2022-12-07T10:14:57;12.43;;;7.43;;
38805;SDS011;25635;51.146;17.162;2022-12-07T10:17:30;12.60;;;6.63;;
38805;SDS011;25635;51.146;17.162;2022-12-07T10:20:14;12.93;;;6.83;;
38805;SDS011;25635;51.146;17.162;2022-12-07T10:22:54;11.93;;;6.47;;
38805;SDS011;25635;51.146;17.162;2022-12-07T10:25:21;8.60;;;5.17;;
38805;SDS011;25635;51.146;17.162;2022-12-07T10:27:58;10.30;;;5.83;;
38805;SDS011;25635;51.146;17.162;2022-12-07T10:36:16;11.97;;;5.73;;
38805;SDS011;25635;51.146;17.162;2022-12-07T10:41:53;7.60;;;4.47;;
38805;SDS011;25635;51.146;17.162;2022-12-07T10:44:33;9.87;;;5.20;;
38805;SDS011;25635;51.146;17.162;2022-12-07T10:55:51;9.00;;;5.03;;
38805;SDS011;25635;51.146;17.162;2022-12-07T11:07:27;12.00;;;6.10;;
38805;SDS011;25635;51.146;17.162;2022-12-07T11:10:13;9.90;;;5.20;;
38805;SDS011;25635;51.146;17.162;2022-12-07T11:16:12;9.73;;;4.73;;
38805;SDS011;25635;51.146;17.162;2022-12-07T11:18:52;8.10;;;4.70;;
38805;SDS011;25635;51.146;17.162;2022-12-07T11:21:37;7.17;;;3.90;;
38805;SDS011;25635;51.146;17.162;2022-12-07T11:27:26;9.47;;;4.57;;
38805;SDS011;25635;51.146;17.162;2022-12-07T11:30:18;7.62;;;4.60;;
38805;SDS011;25635;51.146;17.162;2022-12-07T11:33:02;8.48;;;5.15;;
38805;SDS011;25635;51.146;17.162;2022-12-07T11:40:50;8.57;;;4.30;;
38805;SDS011;25635;51.146;17.162;2022-12-07T11:43:28;6.97;;;4.27;;
38805;SDS011;25635;51.146;17.162;2022-12-07T11:45:59;6.90;;;3.70;;
38805;SDS011;25635;51.146;17.162;2022-12-07T11:48:43;8.87;;;5.00;;
38805;SDS011;25635;51.146;17.162;2022-12-07T11:51:25;8.15;;;4.58;;
38805;SDS011;25635;51.146;17.162;2022-12-07T11:53:59;7.57;;;4.20;;
38805;SDS011;25635;51.146;17.162;2022-12-07T11:56:28;8.00;;;4.87;;
38805;SDS011;25635;51.146;17.162;2022-12-07T11:59:01;8.03;;;4.27;;
38805;SDS011;25635;51.146;17.162;2022-12-07T12:07:43;6.50;;;3.47;;
38805;SDS011;25635;51.146;17.162;2022-12-07T12:10:18;6.37;;;3.27;;
38805;SDS011;25635;51.146;17.162;2022-12-07T12:18:40;6.60;;;3.70;;
38805;SDS011;25635;51.146;17.162;2022-12-07T12:21:13;8.20;;;3.40;;
38805;SDS011;25635;51.146;17.162;2022-12-07T12:23:51;7.70;;;3.23;;
38805;SDS011;25635;51.146;17.162;2022-12-07T12:26:31;9.17;;;3.60;;
38805;SDS011;25635;51.146;17.162;2022-12-07T12:29:18;7.77;;;3.83;;
38805;SDS011;25635;51.146;17.162;2022-12-07T12:31:39;6.57;;;3.70;;
38805;SDS011;25635;51.146;17.162;2022-12-07T12:36:58;5.87;;;3.57;;
38805;SDS011;25635;51.146;17.162;2022-12-07T12:39:25;7.03;;;4.00;;
38805;SDS011;25635;51.146;17.162;2022-12-07T12:41:52;5.30;;;3.60;;
38805;SDS011;25635;51.146;17.162;2022-12-07T12:49:35;7.70;;;4.43;;
38805;SDS011;25635;51.146;17.162;2022-12-07T12:57:42;9.03;;;4.25;;
38805;SDS011;25635;51.146;17.162;2022-12-07T13:05:29;9.67;;;4.13;;
38805;SDS011;25635;51.146;17.162;2022-12-07T13:08:00;7.93;;;4.40;;
38805;SDS011;25635;51.146;17.162;2022-12-07T13:15:51;7.33;;;3.73;;
38805;SDS011;25635;51.146;17.162;2022-12-07T13:26:20;8.57;;;4.80;;
38805;SDS011;25635;51.146;17.162;2022-12-07T13:31:46;7.67;;;4.30;;
38805;SDS011;25635;51.146;17.162;2022-12-07T13:45:25;10.95;;;5.53;;
38805;SDS011;25635;51.146;17.162;2022-12-07T13:48:16;8.40;;;4.93;;
38805;SDS011;25635;51.146;17.162;2022-12-07T13:50:51;8.73;;;4.43;;
38805;SDS011;25635;51.146;17.162;2022-12-07T13:53:22;8.93;;;5.12;;
38805;SDS011;25635;51.146;17.162;2022-12-07T13:55:49;10.90;;;5.53;;
38805;SDS011;25635;51.146;17.162;2022-12-07T13:58:17;11.03;;;5.47;;
38805;SDS011;25635;51.146;17.162;2022-12-07T14:00:43;10.23;;;5.93;;
38805;SDS011;25635;51.146;17.162;2022-12-07T14:05:44;7.70;;;4.57;;
38805;SDS011;25635;51.146;17.162;2022-12-07T14:16:03;10.47;;;6.10;;
38805;SDS011;25635;51.146;17.162;2022-12-07T14:18:38;10.07;;;6.23;;
38805;SDS011;25635;51.146;17.162;2022-12-07T14:23:44;11.07;;;5.63;;
38805;SDS011;25635;51.146;17.162;2022-12-07T14:26:15;11.07;;;5.90;;
38805;SDS011;25635;51.146;17.162;2022-12-07T14:28:46;8.20;;;4.87;;
38805;SDS011;25635;51.146;17.162;2022-12-07T14:31:14;10.20;;;5.63;;
38805;SDS011;25635;51.146;17.162;2022-12-07T14:33:43;8.10;;;5.10;;
38805;SDS011;25635;51.146;17.162;2022-12-07T14:36:13;7.53;;;4.40;;
38805;SDS011;25635;51.146;17.162;2022-12-07T14:38:40;7.93;;;4.53;;
38805;SDS011;25635;51.146;17.162;2022-12-07T14:41:14;8.57;;;4.70;;
38805;SDS011;25635;51.146;17.162;2022-12-07T14:43:59;9.47;;;5.00;;
38805;SDS011;25635;51.146;17.162;2022-12-07T14:46:26;8.93;;;4.53;;
38805;SDS011;25635;51.146;17.162;2022-12-07T14:48:52;10.10;;;4.60;;
38805;SDS011;25635;51.146;17.162;2022-12-07T14:51:18;8.87;;;4.40;;
38805;SDS011;25635;51.146;17.162;2022-12-07T14:53:46;9.60;;;4.93;;
38805;SDS011;25635;51.146;17.162;2022-12-07T14:56:15;9.63;;;4.40;;
38805;SDS011;25635;51.146;17.162;2022-12-07T14:58:42;8.67;;;4.30;;
38805;SDS011;25635;51.146;17.162;2022-12-07T15:01:08;7.87;;;4.13;;
38805;SDS011;25635;51.146;17.162;2022-12-07T15:03:34;8.67;;;4.40;;
38805;SDS011;25635;51.146;17.162;2022-12-07T15:06:03;7.87;;;4.13;;
38805;SDS011;25635;51.146;17.162;2022-12-07T15:08:30;6.83;;;4.20;;
38805;SDS011;25635;51.146;17.162;2022-12-07T15:10:56;10.07;;;5.77;;
38805;SDS011;25635;51.146;17.162;2022-12-07T15:13:23;7.60;;;4.60;;
38805;SDS011;25635;51.146;17.162;2022-12-07T15:16:08;8.80;;;4.33;;
38805;SDS011;25635;51.146;17.162;2022-12-07T15:18:37;10.77;;;5.20;;
38805;SDS011;25635;51.146;17.162;2022-12-07T15:21:03;8.43;;;4.50;;
38805;SDS011;25635;51.146;17.162;2022-12-07T15:23:29;7.80;;;4.50;;
38805;SDS011;25635;51.146;17.162;2022-12-07T15:25:57;11.53;;;5.47;;
38805;SDS011;25635;51.146;17.162;2022-12-07T15:28:23;9.87;;;5.73;;
38805;SDS011;25635;51.146;17.162;2022-12-07T15:30:49;8.60;;;4.77;;
38805;SDS011;25635;51.146;17.162;2022-12-07T15:33:15;8.13;;;4.93;;
38805;SDS011;25635;51.146;17.162;2022-12-07T15:35:42;10.40;;;5.67;;
38805;SDS011;25635;51.146;17.162;2022-12-07T15:38:11;9.90;;;5.20;;
38805;SDS011;25635;51.146;17.162;2022-12-07T15:40:37;8.93;;;4.90;;
38805;SDS011;25635;51.146;17.162;2022-12-07T15:43:03;9.73;;;5.23;;
38805;SDS011;25635;51.146;17.162;2022-12-07T15:45:30;8.53;;;5.20;;
38805;SDS011;25635;51.146;17.162;2022-12-07T15:47:56;10.33;;;5.53;;
38805;SDS011;25635;51.146;17.162;2022-12-07T15:50:23;9.50;;;5.53;;
38805;SDS011;25635;51.146;17.162;2022-12-07T15:52:49;10.97;;;6.40;;
38805;SDS011;25635;51.146;17.162;2022-12-07T15:55:15;10.03;;;5.53;;
38805;SDS011;25635;51.146;17.162;2022-12-07T15:57:41;9.13;;;5.27;;
38805;SDS011;25635;51.146;17.162;2022-12-07T16:00:08;10.00;;;5.17;;
38805;SDS011;25635;51.146;17.162;2022-12-07T16:02:38;8.87;;;5.30;;
38805;SDS011;25635;51.146;17.162;2022-12-07T16:05:04;11.30;;;6.40;;
38805;SDS011;25635;51.146;17.162;2022-12-07T16:07:31;13.47;;;8.20;;
38805;SDS011;25635;51.146;17.162;2022-12-07T16:09:57;11.53;;;6.80;;
38805;SDS011;25635;51.146;17.162;2022-12-07T16:12:23;12.80;;;6.57;;
38805;SDS011;25635;51.146;17.162;2022-12-07T16:14:50;11.27;;;6.97;;
38805;SDS011;25635;51.146;17.162;2022-12-07T16:17:16;12.83;;;7.30;;
38805;SDS011;25635;51.146;17.162;2022-12-07T16:19:43;16.30;;;9.53;;
38805;SDS011;25635;51.146;17.162;2022-12-07T16:22:09;13.17;;;7.23;;
38805;SDS011;25635;51.146;17.162;2022-12-07T16:24:35;12.10;;;6.93;;
38805;SDS011;25635;51.146;17.162;2022-12-07T16:27:01;13.10;;;7.50;;
38805;SDS011;25635;51.146;17.162;2022-12-07T16:29:27;11.67;;;7.30;;
38805;SDS011;25635;51.146;17.162;2022-12-07T16:31:54;14.60;;;7.90;;
38805;SDS011;25635;51.146;17.162;2022-12-07T16:34:20;17.37;;;8.80;;
38805;SDS011;25635;51.146;17.162;2022-12-07T16:36:46;17.53;;;9.13;;
38805;SDS011;25635;51.146;17.162;2022-12-07T16:39:12;18.67;;;10.30;;
38805;SDS011;25635;51.146;17.162;2022-12-07T16:41:38;15.57;;;9.47;;
38805;SDS011;25635;51.146;17.162;2022-12-07T16:44:05;11.70;;;7.50;;
38805;SDS011;25635;51.146;17.162;2022-12-07T16:46:35;16.77;;;8.13;;
38805;SDS011;25635;51.146;17.162;2022-12-07T16:49:02;14.37;;;7.47;;
38805;SDS011;25635;51.146;17.162;2022-12-07T16:51:29;13.17;;;7.40;;
38805;SDS011;25635;51.146;17.162;2022-12-07T16:53:56;11.93;;;6.73;;
38805;SDS011;25635;51.146;17.162;2022-12-07T16:56:22;9.73;;;6.30;;
38805;SDS011;25635;51.146;17.162;2022-12-07T16:58:50;11.43;;;6.57;;
38805;SDS011;25635;51.146;17.162;2022-12-07T17:01:18;13.23;;;7.23;;